sensor_id;sensor_type;location;lat;lon;timestamp;temperature;humidity
10468;DHT22;5281;48.878;9.394;2023-11-19T00:00:41;11.80;99.90
10468;DHT22;5281;48.878;9.394;2023-11-19T00:03:08;11.90;99.90
10468;DHT22;5281;48.878;9.394;2023-11-19T00:05:37;11.90;99.90
10468;DHT22;5281;48.878;9.394;2023-11-19T00:08:04;12.00;99.90
10468;DHT22;5281;48.878;9.394;2023-11-19T00:10:32;11.90;99.90
10468;DHT22;5281;48.878;9.394;2023-11-19T00:12:58;11.80;99.90
10468;DHT22;5281;48.878;9.394;2023-11-19T00:15:25;11.90;99.90
10468;DHT22;5281;48.878;9.394;2023-11-19T00:17:52;11.90;99.90
10468;DHT22;5281;48.878;9.394;2023-11-19T00:20:20;11.90;99.90
10468;DHT22;5281;48.878;9.394;2023-11-19T00:22:48;11.80;99.90
10468;DHT22;5281;48.878;9.394;2023-11-19T00:25:16;11.80;99.90
10468;DHT22;5281;48.878;9.394;2023-11-19T00:27:43;11.80;99.90
10468;DHT22;5281;48.878;9.394;2023-11-19T00:30:11;11.70;99.90
10468;DHT22;5281;48.878;9.394;2023-11-19T00:32:38;11.80;99.90
10468;DHT22;5281;48.878;9.394;2023-11-19T00:35:06;11.80;99.90
10468;DHT22;5281;48.878;9.394;2023-11-19T00:37:33;11.90;99.90
10468;DHT22;5281;48.878;9.394;2023-11-19T00:40:01;11.90;99.90
10468;DHT22;5281;48.878;9.394;2023-11-19T00:42:30;12.00;99.90
10468;DHT22;5281;48.878;9.394;2023-11-19T00:44:57;12.00;99.90
10468;DHT22;5281;48.878;9.394;2023-11-19T00:47:24;11.90;99.90
10468;DHT22;5281;48.878;9.394;2023-11-19T00:49:51;12.00;99.90
10468;DHT22;5281;48.878;9.394;2023-11-19T00:52:18;12.00;99.90
10468;DHT22;5281;48.878;9.394;2023-11-19T00:54:45;12.00;99.90
10468;DHT22;5281;48.878;9.394;2023-11-19T00:57:13;12.00;99.90
10468;DHT22;5281;48.878;9.394;2023-11-19T00:59:41;12.00;99.90
10468;DHT22;5281;48.878;9.394;2023-11-19T01:02:08;12.10;99.90
10468;DHT22;5281;48.878;9.394;2023-11-19T01:04:35;12.10;99.90
10468;DHT22;5281;48.878;9.394;2023-11-19T01:07:02;12.20;99.90
10468;DHT22;5281;48.878;9.394;2023-11-19T01:09:30;12.20;99.90
10468;DHT22;5281;48.878;9.394;2023-11-19T01:11:57;12.20;99.90
10468;DHT22;5281;48.878;9.394;2023-11-19T01:14:27;12.10;99.90
10468;DHT22;5281;48.878;9.394;2023-11-19T01:16:54;12.20;99.90
10468;DHT22;5281;48.878;9.394;2023-11-19T01:19:21;12.20;99.90
10468;DHT22;5281;48.878;9.394;2023-11-19T01:21:48;12.40;99.90
10468;DHT22;5281;48.878;9.394;2023-11-19T01:24:15;12.30;99.90
10468;DHT22;5281;48.878;9.394;2023-11-19T01:26:43;12.40;99.90
10468;DHT22;5281;48.878;9.394;2023-11-19T01:29:10;12.50;99.90
10468;DHT22;5281;48.878;9.394;2023-11-19T01:31:40;12.50;99.90
10468;DHT22;5281;48.878;9.394;2023-11-19T01:34:07;12.50;99.90
10468;DHT22;5281;48.878;9.394;2023-11-19T01:36:33;12.50;99.90
10468;DHT22;5281;48.878;9.394;2023-11-19T01:39:00;12.50;99.90
10468;DHT22;5281;48.878;9.394;2023-11-19T01:41:27;12.50;99.90
10468;DHT22;5281;48.878;9.394;2023-11-19T01:43:53;12.50;99.90
10468;DHT22;5281;48.878;9.394;2023-11-19T01:46:20;12.60;99.90
10468;DHT22;5281;48.878;9.394;2023-11-19T01:48:48;12.60;99.90
10468;DHT22;5281;48.878;9.394;2023-11-19T01:51:15;12.60;99.90
10468;DHT22;5281;48.878;9.394;2023-11-19T01:53:43;12.60;99.90
10468;DHT22;5281;48.878;9.394;2023-11-19T01:56:13;12.60;99.90
10468;DHT22;5281;48.878;9.394;2023-11-19T01:58:42;12.60;99.90
10468;DHT22;5281;48.878;9.394;2023-11-19T02:01:09;12.70;99.90
10468;DHT22;5281;48.878;9.394;2023-11-19T02:03:36;12.70;99.90
10468;DHT22;5281;48.878;9.394;2023-11-19T02:06:06;12.70;99.90
10468;DHT22;5281;48.878;9.394;2023-11-19T02:08:35;12.70;99.90
10468;DHT22;5281;48.878;9.394;2023-11-19T02:11:02;12.80;99.90
10468;DHT22;5281;48.878;9.394;2023-11-19T02:13:29;12.80;99.90
10468;DHT22;5281;48.878;9.394;2023-11-19T02:15:56;12.70;99.90
10468;DHT22;5281;48.878;9.394;2023-11-19T02:18:25;12.80;99.90
10468;DHT22;5281;48.878;9.394;2023-11-19T02:20:53;12.80;99.90
10468;DHT22;5281;48.878;9.394;2023-11-19T02:23:21;12.80;99.90
10468;DHT22;5281;48.878;9.394;2023-11-19T02:25:58;12.90;99.90
10468;DHT22;5281;48.878;9.394;2023-11-19T02:28:28;12.90;99.90
10468;DHT22;5281;48.878;9.394;2023-11-19T02:30:54;12.80;99.90
10468;DHT22;5281;48.878;9.394;2023-11-19T02:33:21;12.90;99.90
10468;DHT22;5281;48.878;9.394;2023-11-19T02:35:48;12.90;99.90
10468;DHT22;5281;48.878;9.394;2023-11-19T02:38:15;12.90;99.90
10468;DHT22;5281;48.878;9.394;2023-11-19T02:40:42;12.90;99.90
10468;DHT22;5281;48.878;9.394;2023-11-19T02:43:08;13.00;99.90
10468;DHT22;5281;48.878;9.394;2023-11-19T02:45:37;13.00;99.90
10468;DHT22;5281;48.878;9.394;2023-11-19T02:48:04;13.10;99.90
10468;DHT22;5281;48.878;9.394;2023-11-19T02:50:32;13.10;99.90
10468;DHT22;5281;48.878;9.394;2023-11-19T02:52:58;13.10;99.90
10468;DHT22;5281;48.878;9.394;2023-11-19T02:55:26;13.10;99.90
10468;DHT22;5281;48.878;9.394;2023-11-19T02:57:56;13.10;99.90
10468;DHT22;5281;48.878;9.394;2023-11-19T03:00:24;13.10;99.90
10468;DHT22;5281;48.878;9.394;2023-11-19T03:02:59;13.10;99.90
10468;DHT22;5281;48.878;9.394;2023-11-19T03:05:31;13.10;99.90
10468;DHT22;5281;48.878;9.394;2023-11-19T03:07:58;13.00;99.90
10468;DHT22;5281;48.878;9.394;2023-11-19T03:10:24;13.10;99.90
10468;DHT22;5281;48.878;9.394;2023-11-19T03:12:51;13.10;99.90
10468;DHT22;5281;48.878;9.394;2023-11-19T03:15:18;13.00;99.90
10468;DHT22;5281;48.878;9.394;2023-11-19T03:17:46;13.10;99.90
10468;DHT22;5281;48.878;9.394;2023-11-19T03:20:15;13.20;99.90
10468;DHT22;5281;48.878;9.394;2023-11-19T03:22:42;13.10;99.90
10468;DHT22;5281;48.878;9.394;2023-11-19T03:25:09;13.20;99.90
10468;DHT22;5281;48.878;9.394;2023-11-19T03:27:36;13.20;99.90
10468;DHT22;5281;48.878;9.394;2023-11-19T03:30:05;13.20;99.90
10468;DHT22;5281;48.878;9.394;2023-11-19T03:32:32;13.20;99.90
10468;DHT22;5281;48.878;9.394;2023-11-19T03:35:00;13.30;99.90
10468;DHT22;5281;48.878;9.394;2023-11-19T03:37:28;13.30;99.90
10468;DHT22;5281;48.878;9.394;2023-11-19T03:39:56;13.30;99.90
10468;DHT22;5281;48.878;9.394;2023-11-19T03:42:25;13.20;99.90
10468;DHT22;5281;48.878;9.394;2023-11-19T03:44:52;13.10;99.90
10468;DHT22;5281;48.878;9.394;2023-11-19T03:47:19;13.10;99.90
10468;DHT22;5281;48.878;9.394;2023-11-19T03:49:48;13.00;99.90
10468;DHT22;5281;48.878;9.394;2023-11-19T03:52:15;13.10;99.90
10468;DHT22;5281;48.878;9.394;2023-11-19T03:54:43;13.10;99.90
10468;DHT22;5281;48.878;9.394;2023-11-19T03:57:12;13.10;99.90
10468;DHT22;5281;48.878;9.394;2023-11-19T03:59:39;13.10;99.90
10468;DHT22;5281;48.878;9.394;2023-11-19T04:02:06;13.10;99.90
10468;DHT22;5281;48.878;9.394;2023-11-19T04:04:33;13.10;99.90
10468;DHT22;5281;48.878;9.394;2023-11-19T04:07:00;13.10;99.90
10468;DHT22;5281;48.878;9.394;2023-11-19T04:09:28;13.00;99.90
10468;DHT22;5281;48.878;9.394;2023-11-19T04:11:56;13.10;99.90
10468;DHT22;5281;48.878;9.394;2023-11-19T04:14:23;13.10;99.90
10468;DHT22;5281;48.878;9.394;2023-11-19T04:16:49;13.10;99.90
10468;DHT22;5281;48.878;9.394;2023-11-19T04:19:16;13.10;99.90
10468;DHT22;5281;48.878;9.394;2023-11-19T04:21:43;13.20;99.90
10468;DHT22;5281;48.878;9.394;2023-11-19T04:24:11;13.20;99.90
10468;DHT22;5281;48.878;9.394;2023-11-19T04:26:40;13.40;99.90
10468;DHT22;5281;48.878;9.394;2023-11-19T04:29:09;13.40;99.90
10468;DHT22;5281;48.878;9.394;2023-11-19T04:31:36;13.30;99.90
10468;DHT22;5281;48.878;9.394;2023-11-19T04:34:03;13.40;99.90
10468;DHT22;5281;48.878;9.394;2023-11-19T04:36:30;13.40;99.90
10468;DHT22;5281;48.878;9.394;2023-11-19T04:38:57;13.50;99.90
10468;DHT22;5281;48.878;9.394;2023-11-19T04:41:24;13.50;99.90
10468;DHT22;5281;48.878;9.394;2023-11-19T04:43:52;13.50;99.90
10468;DHT22;5281;48.878;9.394;2023-11-19T04:46:20;13.50;99.90
10468;DHT22;5281;48.878;9.394;2023-11-19T04:48:49;13.50;99.90
10468;DHT22;5281;48.878;9.394;2023-11-19T04:51:15;13.50;99.90
10468;DHT22;5281;48.878;9.394;2023-11-19T04:53:42;13.50;99.90
10468;DHT22;5281;48.878;9.394;2023-11-19T04:56:10;13.50;99.90
10468;DHT22;5281;48.878;9.394;2023-11-19T04:58:37;13.60;99.90
10468;DHT22;5281;48.878;9.394;2023-11-19T05:01:04;13.60;99.90
10468;DHT22;5281;48.878;9.394;2023-11-19T05:03:32;13.60;99.90
10468;DHT22;5281;48.878;9.394;2023-11-19T05:05:59;13.50;99.90
10468;DHT22;5281;48.878;9.394;2023-11-19T05:08:26;13.60;99.90
10468;DHT22;5281;48.878;9.394;2023-11-19T05:10:52;13.50;99.90
10468;DHT22;5281;48.878;9.394;2023-11-19T05:13:20;13.60;99.90
10468;DHT22;5281;48.878;9.394;2023-11-19T05:15:46;13.70;99.90
10468;DHT22;5281;48.878;9.394;2023-11-19T05:18:13;13.60;99.90
10468;DHT22;5281;48.878;9.394;2023-11-19T05:20:41;13.60;99.90
10468;DHT22;5281;48.878;9.394;2023-11-19T05:23:08;13.70;99.90
10468;DHT22;5281;48.878;9.394;2023-11-19T05:25:36;13.70;99.90
10468;DHT22;5281;48.878;9.394;2023-11-19T05:28:03;13.70;99.90
10468;DHT22;5281;48.878;9.394;2023-11-19T05:30:30;13.80;99.90
10468;DHT22;5281;48.878;9.394;2023-11-19T05:32:56;13.80;99.90
10468;DHT22;5281;48.878;9.394;2023-11-19T05:35:23;13.90;99.90
10468;DHT22;5281;48.878;9.394;2023-11-19T05:37:51;13.90;99.90
10468;DHT22;5281;48.878;9.394;2023-11-19T05:40:18;13.90;99.90
10468;DHT22;5281;48.878;9.394;2023-11-19T05:42:46;13.90;99.90
10468;DHT22;5281;48.878;9.394;2023-11-19T05:45:12;13.90;99.90
10468;DHT22;5281;48.878;9.394;2023-11-19T05:47:39;13.90;99.90
10468;DHT22;5281;48.878;9.394;2023-11-19T05:50:06;13.90;99.90
10468;DHT22;5281;48.878;9.394;2023-11-19T05:52:34;13.90;99.90
10468;DHT22;5281;48.878;9.394;2023-11-19T05:55:02;13.90;99.90
10468;DHT22;5281;48.878;9.394;2023-11-19T05:57:34;13.90;99.90
10468;DHT22;5281;48.878;9.394;2023-11-19T06:00:01;14.00;99.90
10468;DHT22;5281;48.878;9.394;2023-11-19T06:02:29;14.00;99.90
10468;DHT22;5281;48.878;9.394;2023-11-19T06:04:55;14.00;99.90
10468;DHT22;5281;48.878;9.394;2023-11-19T06:07:22;14.10;99.90
10468;DHT22;5281;48.878;9.394;2023-11-19T06:09:49;14.10;99.90
10468;DHT22;5281;48.878;9.394;2023-11-19T06:12:17;14.00;99.90
10468;DHT22;5281;48.878;9.394;2023-11-19T06:14:43;14.00;99.90
10468;DHT22;5281;48.878;9.394;2023-11-19T06:17:10;14.00;99.90
10468;DHT22;5281;48.878;9.394;2023-11-19T06:19:37;14.00;99.90
10468;DHT22;5281;48.878;9.394;2023-11-19T06:22:04;14.00;99.90
10468;DHT22;5281;48.878;9.394;2023-11-19T06:24:31;14.10;99.90
10468;DHT22;5281;48.878;9.394;2023-11-19T06:26:57;14.00;99.90
10468;DHT22;5281;48.878;9.394;2023-11-19T06:29:26;14.00;99.90
10468;DHT22;5281;48.878;9.394;2023-11-19T06:31:53;14.00;99.90
10468;DHT22;5281;48.878;9.394;2023-11-19T06:34:20;14.10;99.90
10468;DHT22;5281;48.878;9.394;2023-11-19T06:36:46;14.20;99.90
10468;DHT22;5281;48.878;9.394;2023-11-19T06:39:13;14.30;99.90
10468;DHT22;5281;48.878;9.394;2023-11-19T06:41:44;14.30;99.90
10468;DHT22;5281;48.878;9.394;2023-11-19T06:44:11;14.40;99.90
10468;DHT22;5281;48.878;9.394;2023-11-19T06:46:39;14.30;99.90
10468;DHT22;5281;48.878;9.394;2023-11-19T06:49:06;14.40;99.90
10468;DHT22;5281;48.878;9.394;2023-11-19T06:51:33;14.30;99.90
10468;DHT22;5281;48.878;9.394;2023-11-19T06:54:00;14.40;99.90
10468;DHT22;5281;48.878;9.394;2023-11-19T06:56:27;14.40;99.90
10468;DHT22;5281;48.878;9.394;2023-11-19T06:58:54;14.40;99.90
10468;DHT22;5281;48.878;9.394;2023-11-19T07:01:20;14.50;99.90
10468;DHT22;5281;48.878;9.394;2023-11-19T07:03:48;14.40;99.90
10468;DHT22;5281;48.878;9.394;2023-11-19T07:06:16;14.40;99.90
10468;DHT22;5281;48.878;9.394;2023-11-19T07:08:43;14.40;99.90
10468;DHT22;5281;48.878;9.394;2023-11-19T07:11:11;14.40;99.90
10468;DHT22;5281;48.878;9.394;2023-11-19T07:13:37;14.40;99.90
10468;DHT22;5281;48.878;9.394;2023-11-19T07:16:05;14.30;99.90
10468;DHT22;5281;48.878;9.394;2023-11-19T07:18:35;14.30;99.90
10468;DHT22;5281;48.878;9.394;2023-11-19T07:21:04;14.20;99.90
10468;DHT22;5281;48.878;9.394;2023-11-19T07:23:31;14.20;99.90
10468;DHT22;5281;48.878;9.394;2023-11-19T07:25:58;14.30;99.90
10468;DHT22;5281;48.878;9.394;2023-11-19T07:28:25;14.30;99.90
10468;DHT22;5281;48.878;9.394;2023-11-19T07:30:54;14.40;99.90
10468;DHT22;5281;48.878;9.394;2023-11-19T07:33:21;14.30;99.90
10468;DHT22;5281;48.878;9.394;2023-11-19T07:35:48;14.30;99.90
10468;DHT22;5281;48.878;9.394;2023-11-19T07:38:16;14.30;99.90
10468;DHT22;5281;48.878;9.394;2023-11-19T07:40:43;14.30;99.90
10468;DHT22;5281;48.878;9.394;2023-11-19T07:43:10;14.30;99.90
10468;DHT22;5281;48.878;9.394;2023-11-19T07:45:36;14.40;99.90
10468;DHT22;5281;48.878;9.394;2023-11-19T07:48:04;14.40;99.90
10468;DHT22;5281;48.878;9.394;2023-11-19T07:50:31;14.60;99.90
10468;DHT22;5281;48.878;9.394;2023-11-19T07:52:58;14.60;99.90
10468;DHT22;5281;48.878;9.394;2023-11-19T07:55:26;14.50;99.90
10468;DHT22;5281;48.878;9.394;2023-11-19T07:57:53;14.50;99.90
10468;DHT22;5281;48.878;9.394;2023-11-19T08:00:20;14.50;99.90
10468;DHT22;5281;48.878;9.394;2023-11-19T08:02:47;14.60;99.90
10468;DHT22;5281;48.878;9.394;2023-11-19T08:05:13;14.60;99.90
10468;DHT22;5281;48.878;9.394;2023-11-19T08:07:40;14.70;99.90
10468;DHT22;5281;48.878;9.394;2023-11-19T08:10:07;14.70;99.90
10468;DHT22;5281;48.878;9.394;2023-11-19T08:12:37;14.90;99.90
10468;DHT22;5281;48.878;9.394;2023-11-19T08:15:05;15.00;99.90
10468;DHT22;5281;48.878;9.394;2023-11-19T08:17:32;15.20;99.90
10468;DHT22;5281;48.878;9.394;2023-11-19T08:19:59;15.30;99.90
10468;DHT22;5281;48.878;9.394;2023-11-19T08:22:26;15.30;99.90
10468;DHT22;5281;48.878;9.394;2023-11-19T08:24:53;15.40;99.90
10468;DHT22;5281;48.878;9.394;2023-11-19T08:27:19;15.50;99.90
10468;DHT22;5281;48.878;9.394;2023-11-19T08:29:53;15.70;99.90
10468;DHT22;5281;48.878;9.394;2023-11-19T08:32:21;15.90;99.90
10468;DHT22;5281;48.878;9.394;2023-11-19T08:34:47;16.00;99.90
10468;DHT22;5281;48.878;9.394;2023-11-19T08:37:14;16.10;99.90
10468;DHT22;5281;48.878;9.394;2023-11-19T08:39:43;16.10;99.90
10468;DHT22;5281;48.878;9.394;2023-11-19T08:42:10;16.10;99.90
10468;DHT22;5281;48.878;9.394;2023-11-19T08:44:39;16.10;99.90
10468;DHT22;5281;48.878;9.394;2023-11-19T08:47:11;16.00;99.90
10468;DHT22;5281;48.878;9.394;2023-11-19T08:49:38;16.00;99.90
10468;DHT22;5281;48.878;9.394;2023-11-19T08:52:05;15.90;99.90
10468;DHT22;5281;48.878;9.394;2023-11-19T08:54:33;15.80;99.90
10468;DHT22;5281;48.878;9.394;2023-11-19T08:57:00;15.80;99.90
10468;DHT22;5281;48.878;9.394;2023-11-19T08:59:28;15.80;99.90
10468;DHT22;5281;48.878;9.394;2023-11-19T09:01:55;15.70;99.90
10468;DHT22;5281;48.878;9.394;2023-11-19T09:04:23;15.70;99.90
10468;DHT22;5281;48.878;9.394;2023-11-19T09:06:51;15.80;99.90
10468;DHT22;5281;48.878;9.394;2023-11-19T09:09:17;15.90;99.90
10468;DHT22;5281;48.878;9.394;2023-11-19T09:11:44;16.00;99.90
10468;DHT22;5281;48.878;9.394;2023-11-19T09:14:11;16.00;99.90
10468;DHT22;5281;48.878;9.394;2023-11-19T09:16:37;16.10;99.90
10468;DHT22;5281;48.878;9.394;2023-11-19T09:19:04;16.20;99.90
10468;DHT22;5281;48.878;9.394;2023-11-19T09:21:32;16.20;99.90
10468;DHT22;5281;48.878;9.394;2023-11-19T09:24:02;16.30;99.90
10468;DHT22;5281;48.878;9.394;2023-11-19T09:26:28;16.40;99.90
10468;DHT22;5281;48.878;9.394;2023-11-19T09:28:56;16.50;99.90
10468;DHT22;5281;48.878;9.394;2023-11-19T09:31:22;16.50;99.90
10468;DHT22;5281;48.878;9.394;2023-11-19T09:33:49;16.60;99.90
10468;DHT22;5281;48.878;9.394;2023-11-19T09:36:16;16.60;99.90
10468;DHT22;5281;48.878;9.394;2023-11-19T09:38:45;16.60;99.90
10468;DHT22;5281;48.878;9.394;2023-11-19T09:41:12;16.60;99.90
10468;DHT22;5281;48.878;9.394;2023-11-19T09:43:40;16.70;99.90
10468;DHT22;5281;48.878;9.394;2023-11-19T09:46:09;16.70;99.90
10468;DHT22;5281;48.878;9.394;2023-11-19T09:48:38;16.60;99.90
10468;DHT22;5281;48.878;9.394;2023-11-19T09:51:06;16.50;99.90
10468;DHT22;5281;48.878;9.394;2023-11-19T09:53:33;16.40;99.90
10468;DHT22;5281;48.878;9.394;2023-11-19T09:56:02;16.40;99.90
10468;DHT22;5281;48.878;9.394;2023-11-19T09:58:29;16.40;99.90
10468;DHT22;5281;48.878;9.394;2023-11-19T10:00:56;16.40;99.90
10468;DHT22;5281;48.878;9.394;2023-11-19T10:03:25;16.50;99.90
10468;DHT22;5281;48.878;9.394;2023-11-19T10:05:54;16.60;99.90
10468;DHT22;5281;48.878;9.394;2023-11-19T10:08:21;16.70;99.90
10468;DHT22;5281;48.878;9.394;2023-11-19T10:10:48;16.80;99.90
10468;DHT22;5281;48.878;9.394;2023-11-19T10:13:16;17.10;99.90
10468;DHT22;5281;48.878;9.394;2023-11-19T10:15:44;17.30;99.90
10468;DHT22;5281;48.878;9.394;2023-11-19T10:18:10;17.40;99.90
10468;DHT22;5281;48.878;9.394;2023-11-19T10:20:37;17.60;99.90
10468;DHT22;5281;48.878;9.394;2023-11-19T10:23:04;17.80;99.90
10468;DHT22;5281;48.878;9.394;2023-11-19T10:25:32;18.00;99.90
10468;DHT22;5281;48.878;9.394;2023-11-19T10:28:00;18.00;99.90
10468;DHT22;5281;48.878;9.394;2023-11-19T10:30:29;18.00;99.90
10468;DHT22;5281;48.878;9.394;2023-11-19T10:33:06;18.00;99.90
10468;DHT22;5281;48.878;9.394;2023-11-19T10:35:34;17.90;99.90
10468;DHT22;5281;48.878;9.394;2023-11-19T10:38:01;18.10;99.90
10468;DHT22;5281;48.878;9.394;2023-11-19T10:40:38;18.40;99.90
10468;DHT22;5281;48.878;9.394;2023-11-19T10:43:06;18.60;99.90
10468;DHT22;5281;48.878;9.394;2023-11-19T10:45:35;18.60;99.90
10468;DHT22;5281;48.878;9.394;2023-11-19T10:48:03;18.50;99.90
10468;DHT22;5281;48.878;9.394;2023-11-19T10:50:32;18.50;99.90
10468;DHT22;5281;48.878;9.394;2023-11-19T10:52:59;18.40;99.90
10468;DHT22;5281;48.878;9.394;2023-11-19T10:55:28;18.40;99.90
10468;DHT22;5281;48.878;9.394;2023-11-19T10:57:59;18.50;99.90
10468;DHT22;5281;48.878;9.394;2023-11-19T11:00:27;18.50;99.90
10468;DHT22;5281;48.878;9.394;2023-11-19T11:03:01;18.50;99.90
10468;DHT22;5281;48.878;9.394;2023-11-19T11:05:29;18.50;99.90
10468;DHT22;5281;48.878;9.394;2023-11-19T11:07:58;18.30;99.90
10468;DHT22;5281;48.878;9.394;2023-11-19T11:10:26;18.10;99.90
10468;DHT22;5281;48.878;9.394;2023-11-19T11:12:56;17.90;99.90
10468;DHT22;5281;48.878;9.394;2023-11-19T11:15:27;17.80;99.90
10468;DHT22;5281;48.878;9.394;2023-11-19T11:17:59;17.90;99.90
10468;DHT22;5281;48.878;9.394;2023-11-19T11:20:27;17.80;99.90
10468;DHT22;5281;48.878;9.394;2023-11-19T11:23:07;17.90;99.90
10468;DHT22;5281;48.878;9.394;2023-11-19T11:25:46;17.90;99.90
10468;DHT22;5281;48.878;9.394;2023-11-19T11:28:25;17.60;99.90
10468;DHT22;5281;48.878;9.394;2023-11-19T11:31:08;17.60;99.90
10468;DHT22;5281;48.878;9.394;2023-11-19T11:36:27;17.70;99.90
10468;DHT22;5281;48.878;9.394;2023-11-19T11:38:58;18.00;99.90
10468;DHT22;5281;48.878;9.394;2023-11-19T11:41:26;18.20;99.90
10468;DHT22;5281;48.878;9.394;2023-11-19T11:43:54;18.40;99.90
10468;DHT22;5281;48.878;9.394;2023-11-19T11:46:56;18.60;99.90
10468;DHT22;5281;48.878;9.394;2023-11-19T11:49:28;18.50;99.90
10468;DHT22;5281;48.878;9.394;2023-11-19T11:52:03;18.50;99.90
10468;DHT22;5281;48.878;9.394;2023-11-19T11:54:30;18.50;99.90
10468;DHT22;5281;48.878;9.394;2023-11-19T11:57:07;18.70;99.90
10468;DHT22;5281;48.878;9.394;2023-11-19T11:59:48;18.80;99.90
10468;DHT22;5281;48.878;9.394;2023-11-19T12:02:16;18.90;99.90
10468;DHT22;5281;48.878;9.394;2023-11-19T12:04:48;18.80;99.90
10468;DHT22;5281;48.878;9.394;2023-11-19T12:07:17;18.60;99.90
10468;DHT22;5281;48.878;9.394;2023-11-19T12:09:48;18.60;99.90
10468;DHT22;5281;48.878;9.394;2023-11-19T12:12:22;18.60;99.90
10468;DHT22;5281;48.878;9.394;2023-11-19T12:15:08;18.70;99.90
10468;DHT22;5281;48.878;9.394;2023-11-19T12:17:44;18.80;99.90
10468;DHT22;5281;48.878;9.394;2023-11-19T12:20:16;18.90;99.90
10468;DHT22;5281;48.878;9.394;2023-11-19T12:22:44;19.00;99.90
10468;DHT22;5281;48.878;9.394;2023-11-19T12:25:12;19.00;99.90
10468;DHT22;5281;48.878;9.394;2023-11-19T12:27:42;19.00;99.90
10468;DHT22;5281;48.878;9.394;2023-11-19T12:30:10;19.00;99.90
10468;DHT22;5281;48.878;9.394;2023-11-19T12:32:38;18.90;99.90
10468;DHT22;5281;48.878;9.394;2023-11-19T12:35:06;18.70;99.90
10468;DHT22;5281;48.878;9.394;2023-11-19T12:37:40;18.70;99.90
10468;DHT22;5281;48.878;9.394;2023-11-19T12:40:12;18.50;99.90
10468;DHT22;5281;48.878;9.394;2023-11-19T12:42:39;18.30;99.90
10468;DHT22;5281;48.878;9.394;2023-11-19T12:45:07;18.00;99.90
10468;DHT22;5281;48.878;9.394;2023-11-19T12:47:34;17.80;99.90
10468;DHT22;5281;48.878;9.394;2023-11-19T12:50:01;17.40;99.90
10468;DHT22;5281;48.878;9.394;2023-11-19T12:52:27;17.20;99.90
10468;DHT22;5281;48.878;9.394;2023-11-19T12:54:56;17.30;99.90
10468;DHT22;5281;48.878;9.394;2023-11-19T12:57:36;17.30;99.90
10468;DHT22;5281;48.878;9.394;2023-11-19T13:00:04;17.30;99.90
10468;DHT22;5281;48.878;9.394;2023-11-19T13:02:45;17.20;99.90
10468;DHT22;5281;48.878;9.394;2023-11-19T13:05:23;17.10;99.90
10468;DHT22;5281;48.878;9.394;2023-11-19T13:07:51;17.00;99.90
10468;DHT22;5281;48.878;9.394;2023-11-19T13:10:20;17.00;99.90
10468;DHT22;5281;48.878;9.394;2023-11-19T13:13:03;17.10;99.90
10468;DHT22;5281;48.878;9.394;2023-11-19T13:15:30;17.20;99.90
10468;DHT22;5281;48.878;9.394;2023-11-19T13:17:57;17.40;99.90
10468;DHT22;5281;48.878;9.394;2023-11-19T13:20:24;17.40;99.90
10468;DHT22;5281;48.878;9.394;2023-11-19T13:22:57;17.60;99.90
10468;DHT22;5281;48.878;9.394;2023-11-19T13:25:26;17.80;99.90
10468;DHT22;5281;48.878;9.394;2023-11-19T13:27:53;17.80;99.90
10468;DHT22;5281;48.878;9.394;2023-11-19T13:30:20;17.80;99.90
10468;DHT22;5281;48.878;9.394;2023-11-19T13:32:47;17.80;99.90
10468;DHT22;5281;48.878;9.394;2023-11-19T13:35:14;17.90;99.90
10468;DHT22;5281;48.878;9.394;2023-11-19T13:37:42;17.90;99.90
10468;DHT22;5281;48.878;9.394;2023-11-19T13:40:10;17.90;99.90
10468;DHT22;5281;48.878;9.394;2023-11-19T13:42:40;17.80;99.90
10468;DHT22;5281;48.878;9.394;2023-11-19T13:45:08;17.70;99.90
10468;DHT22;5281;48.878;9.394;2023-11-19T13:47:37;17.60;99.90
10468;DHT22;5281;48.878;9.394;2023-11-19T13:50:07;17.40;99.90
10468;DHT22;5281;48.878;9.394;2023-11-19T13:52:34;17.30;99.90
10468;DHT22;5281;48.878;9.394;2023-11-19T13:55:02;17.20;99.90
10468;DHT22;5281;48.878;9.394;2023-11-19T13:57:30;16.90;99.90
10468;DHT22;5281;48.878;9.394;2023-11-19T13:59:58;16.80;99.90
10468;DHT22;5281;48.878;9.394;2023-11-19T14:02:24;16.60;99.90
10468;DHT22;5281;48.878;9.394;2023-11-19T14:04:51;16.50;99.90
10468;DHT22;5281;48.878;9.394;2023-11-19T14:07:18;16.60;99.90
10468;DHT22;5281;48.878;9.394;2023-11-19T14:09:44;16.70;99.90
10468;DHT22;5281;48.878;9.394;2023-11-19T14:12:11;16.70;99.90
10468;DHT22;5281;48.878;9.394;2023-11-19T14:14:39;16.70;99.90
10468;DHT22;5281;48.878;9.394;2023-11-19T14:17:08;16.70;99.90
10468;DHT22;5281;48.878;9.394;2023-11-19T14:19:36;16.80;99.90
10468;DHT22;5281;48.878;9.394;2023-11-19T14:22:03;16.80;99.90
10468;DHT22;5281;48.878;9.394;2023-11-19T14:24:30;16.80;99.90
10468;DHT22;5281;48.878;9.394;2023-11-19T14:26:57;16.80;99.90
10468;DHT22;5281;48.878;9.394;2023-11-19T14:29:24;16.80;99.90
10468;DHT22;5281;48.878;9.394;2023-11-19T14:31:51;16.80;99.90
10468;DHT22;5281;48.878;9.394;2023-11-19T14:34:20;16.70;99.90
10468;DHT22;5281;48.878;9.394;2023-11-19T14:36:47;16.70;99.90
10468;DHT22;5281;48.878;9.394;2023-11-19T14:39:14;16.70;99.90
10468;DHT22;5281;48.878;9.394;2023-11-19T14:41:42;16.60;99.90
10468;DHT22;5281;48.878;9.394;2023-11-19T14:44:09;16.60;99.90
10468;DHT22;5281;48.878;9.394;2023-11-19T14:46:36;16.40;99.90
10468;DHT22;5281;48.878;9.394;2023-11-19T14:49:03;16.40;99.90
10468;DHT22;5281;48.878;9.394;2023-11-19T14:51:31;16.30;99.90
10468;DHT22;5281;48.878;9.394;2023-11-19T14:53:58;16.20;99.90
10468;DHT22;5281;48.878;9.394;2023-11-19T14:56:25;16.20;99.90
10468;DHT22;5281;48.878;9.394;2023-11-19T14:58:51;16.10;99.90
10468;DHT22;5281;48.878;9.394;2023-11-19T15:01:18;16.00;99.90
10468;DHT22;5281;48.878;9.394;2023-11-19T15:03:45;15.90;99.90
10468;DHT22;5281;48.878;9.394;2023-11-19T15:06:11;15.80;99.90
10468;DHT22;5281;48.878;9.394;2023-11-19T15:08:39;15.80;99.90
10468;DHT22;5281;48.878;9.394;2023-11-19T15:11:07;15.70;99.90
10468;DHT22;5281;48.878;9.394;2023-11-19T15:13:34;15.70;99.90
10468;DHT22;5281;48.878;9.394;2023-11-19T15:16:03;15.70;99.90
10468;DHT22;5281;48.878;9.394;2023-11-19T15:18:30;15.60;99.90
10468;DHT22;5281;48.878;9.394;2023-11-19T15:20:57;15.50;99.90
10468;DHT22;5281;48.878;9.394;2023-11-19T15:23:24;15.50;99.90
10468;DHT22;5281;48.878;9.394;2023-11-19T15:25:52;15.40;99.90
10468;DHT22;5281;48.878;9.394;2023-11-19T15:28:18;15.30;99.90
10468;DHT22;5281;48.878;9.394;2023-11-19T15:30:45;15.20;99.90
10468;DHT22;5281;48.878;9.394;2023-11-19T15:33:12;15.10;99.90
10468;DHT22;5281;48.878;9.394;2023-11-19T15:35:39;15.00;99.90
10468;DHT22;5281;48.878;9.394;2023-11-19T15:38:06;14.90;99.90
10468;DHT22;5281;48.878;9.394;2023-11-19T15:40:35;14.80;99.90
10468;DHT22;5281;48.878;9.394;2023-11-19T15:43:04;14.80;99.90
10468;DHT22;5281;48.878;9.394;2023-11-19T15:45:32;14.60;99.90
10468;DHT22;5281;48.878;9.394;2023-11-19T15:48:03;14.60;99.90
10468;DHT22;5281;48.878;9.394;2023-11-19T15:50:29;14.50;99.90
10468;DHT22;5281;48.878;9.394;2023-11-19T15:52:56;14.40;99.90